sensor_id;sensor_type;location;lat;lon;timestamp;P1;durP1;ratioP1;P2;durP2;ratioP2
33505;SDS011;19843;51.040;13.782;2023-08-06T00:00:51;3.60;;;2.65;;
33505;SDS011;19843;51.040;13.782;2023-08-06T00:03:19;3.47;;;2.70;;
33505;SDS011;19843;51.040;13.782;2023-08-06T00:05:46;3.05;;;2.67;;
33505;SDS011;19843;51.040;13.782;2023-08-06T00:08:14;4.88;;;3.60;;
33505;SDS011;19843;51.040;13.782;2023-08-06T00:10:43;5.63;;;3.33;;
33505;SDS011;19843;51.040;13.782;2023-08-06T00:13:10;5.60;;;2.90;;
33505;SDS011;19843;51.040;13.782;2023-08-06T00:15:38;4.00;;;3.42;;
33505;SDS011;19843;51.040;13.782;2023-08-06T00:18:05;3.85;;;3.08;;
33505;SDS011;19843;51.040;13.782;2023-08-06T00:20:33;2.88;;;2.58;;
33505;SDS011;19843;51.040;13.782;2023-08-06T00:23:00;4.03;;;3.15;;
33505;SDS011;19843;51.040;13.782;2023-08-06T00:25:28;4.03;;;3.00;;
33505;SDS011;19843;51.040;13.782;2023-08-06T00:27:57;3.38;;;3.03;;
33505;SDS011;19843;51.040;13.782;2023-08-06T00:30:25;3.33;;;2.92;;
33505;SDS011;19843;51.040;13.782;2023-08-06T00:32:53;4.45;;;3.03;;
33505;SDS011;19843;51.040;13.782;2023-08-06T00:35:20;3.10;;;2.80;;
33505;SDS011;19843;51.040;13.782;2023-08-06T00:37:48;3.38;;;2.55;;
33505;SDS011;19843;51.040;13.782;2023-08-06T00:40:15;2.95;;;2.65;;
33505;SDS011;19843;51.040;13.782;2023-08-06T00:42:43;3.30;;;2.78;;
33505;SDS011;19843;51.040;13.782;2023-08-06T00:45:13;3.97;;;2.92;;
33505;SDS011;19843;51.040;13.782;2023-08-06T00:47:41;3.78;;;2.50;;
33505;SDS011;19843;51.040;13.782;2023-08-06T00:50:10;3.13;;;2.85;;
33505;SDS011;19843;51.040;13.782;2023-08-06T00:52:37;4.20;;;2.60;;
33505;SDS011;19843;51.040;13.782;2023-08-06T00:55:05;3.17;;;2.70;;
33505;SDS011;19843;51.040;13.782;2023-08-06T00:57:33;2.92;;;2.63;;
33505;SDS011;19843;51.040;13.782;2023-08-06T01:00:02;4.63;;;3.13;;
33505;SDS011;19843;51.040;13.782;2023-08-06T01:02:31;3.92;;;2.80;;
33505;SDS011;19843;51.040;13.782;2023-08-06T01:05:00;3.58;;;3.03;;
33505;SDS011;19843;51.040;13.782;2023-08-06T01:07:37;2.80;;;2.60;;
33505;SDS011;19843;51.040;13.782;2023-08-06T01:10:20;3.83;;;3.20;;
33505;SDS011;19843;51.040;13.782;2023-08-06T01:12:57;3.05;;;2.75;;
33505;SDS011;19843;51.040;13.782;2023-08-06T01:15:32;4.47;;;3.60;;
33505;SDS011;19843;51.040;13.782;2023-08-06T01:18:06;4.13;;;2.95;;
33505;SDS011;19843;51.040;13.782;2023-08-06T01:20:36;6.32;;;3.72;;
33505;SDS011;19843;51.040;13.782;2023-08-06T01:23:03;3.25;;;2.95;;
33505;SDS011;19843;51.040;13.782;2023-08-06T01:25:33;2.83;;;2.60;;
33505;SDS011;19843;51.040;13.782;2023-08-06T01:28:04;3.20;;;2.72;;
33505;SDS011;19843;51.040;13.782;2023-08-06T01:30:39;5.53;;;3.08;;
33505;SDS011;19843;51.040;13.782;2023-08-06T01:33:09;3.83;;;2.70;;
33505;SDS011;19843;51.040;13.782;2023-08-06T01:35:43;4.72;;;2.78;;
33505;SDS011;19843;51.040;13.782;2023-08-06T01:38:11;4.15;;;3.00;;
33505;SDS011;19843;51.040;13.782;2023-08-06T01:40:39;3.72;;;3.10;;
33505;SDS011;19843;51.040;13.782;2023-08-06T01:43:07;4.47;;;3.17;;
33505;SDS011;19843;51.040;13.782;2023-08-06T01:45:34;3.20;;;2.90;;
33505;SDS011;19843;51.040;13.782;2023-08-06T01:48:02;4.22;;;3.17;;
33505;SDS011;19843;51.040;13.782;2023-08-06T01:50:30;3.05;;;2.75;;
33505;SDS011;19843;51.040;13.782;2023-08-06T01:52:59;3.28;;;2.55;;
33505;SDS011;19843;51.040;13.782;2023-08-06T01:55:26;4.18;;;2.80;;
33505;SDS011;19843;51.040;13.782;2023-08-06T01:57:56;3.22;;;2.92;;
33505;SDS011;19843;51.040;13.782;2023-08-06T02:00:23;5.45;;;3.67;;
33505;SDS011;19843;51.040;13.782;2023-08-06T02:02:51;4.03;;;3.22;;
33505;SDS011;19843;51.040;13.782;2023-08-06T02:05:18;4.47;;;3.40;;
33505;SDS011;19843;51.040;13.782;2023-08-06T02:07:46;3.78;;;3.47;;
33505;SDS011;19843;51.040;13.782;2023-08-06T02:10:15;3.45;;;3.10;;
33505;SDS011;19843;51.040;13.782;2023-08-06T02:12:42;5.00;;;3.10;;
33505;SDS011;19843;51.040;13.782;2023-08-06T02:15:10;3.92;;;3.50;;
33505;SDS011;19843;51.040;13.782;2023-08-06T02:17:37;3.80;;;3.40;;
33505;SDS011;19843;51.040;13.782;2023-08-06T02:20:05;3.78;;;3.28;;
33505;SDS011;19843;51.040;13.782;2023-08-06T02:22:33;3.75;;;3.35;;
33505;SDS011;19843;51.040;13.782;2023-08-06T02:25:01;3.80;;;3.38;;
33505;SDS011;19843;51.040;13.782;2023-08-06T02:27:30;3.80;;;3.25;;
33505;SDS011;19843;51.040;13.782;2023-08-06T02:29:57;3.53;;;3.13;;
33505;SDS011;19843;51.040;13.782;2023-08-06T02:32:25;3.58;;;2.95;;
33505;SDS011;19843;51.040;13.782;2023-08-06T02:34:53;4.10;;;3.33;;
33505;SDS011;19843;51.040;13.782;2023-08-06T02:37:20;4.97;;;3.75;;
33505;SDS011;19843;51.040;13.782;2023-08-06T02:39:49;4.50;;;3.60;;
33505;SDS011;19843;51.040;13.782;2023-08-06T02:42:16;4.88;;;3.50;;
33505;SDS011;19843;51.040;13.782;2023-08-06T02:44:45;4.57;;;4.18;;
33505;SDS011;19843;51.040;13.782;2023-08-06T02:47:13;3.92;;;3.45;;
33505;SDS011;19843;51.040;13.782;2023-08-06T02:49:40;4.93;;;3.60;;
33505;SDS011;19843;51.040;13.782;2023-08-06T02:52:08;3.40;;;3.10;;
33505;SDS011;19843;51.040;13.782;2023-08-06T02:54:35;4.05;;;3.15;;
33505;SDS011;19843;51.040;13.782;2023-08-06T02:57:03;4.88;;;3.17;;
33505;SDS011;19843;51.040;13.782;2023-08-06T02:59:31;4.20;;;2.95;;
33505;SDS011;19843;51.040;13.782;2023-08-06T03:02:00;2.95;;;2.72;;
33505;SDS011;19843;51.040;13.782;2023-08-06T03:04:27;2.67;;;2.47;;
33505;SDS011;19843;51.040;13.782;2023-08-06T03:06:55;3.42;;;2.70;;
33505;SDS011;19843;51.040;13.782;2023-08-06T03:09:23;3.05;;;2.67;;
33505;SDS011;19843;51.040;13.782;2023-08-06T03:11:50;3.22;;;2.88;;
33505;SDS011;19843;51.040;13.782;2023-08-06T03:14:18;2.88;;;2.67;;
33505;SDS011;19843;51.040;13.782;2023-08-06T03:16:46;3.20;;;2.50;;
33505;SDS011;19843;51.040;13.782;2023-08-06T03:19:15;2.90;;;2.67;;
33505;SDS011;19843;51.040;13.782;2023-08-06T03:21:42;3.42;;;3.13;;
33505;SDS011;19843;51.040;13.782;2023-08-06T03:24:10;2.95;;;2.63;;
33505;SDS011;19843;51.040;13.782;2023-08-06T03:26:37;2.83;;;2.53;;
33505;SDS011;19843;51.040;13.782;2023-08-06T03:29:05;2.35;;;2.15;;
33505;SDS011;19843;51.040;13.782;2023-08-06T03:31:32;3.15;;;2.75;;
33505;SDS011;19843;51.040;13.782;2023-08-06T03:34:00;2.92;;;2.63;;
33505;SDS011;19843;51.040;13.782;2023-08-06T03:36:29;3.35;;;2.60;;
33505;SDS011;19843;51.040;13.782;2023-08-06T03:38:57;3.42;;;3.13;;
33505;SDS011;19843;51.040;13.782;2023-08-06T03:41:24;5.20;;;3.35;;
33505;SDS011;19843;51.040;13.782;2023-08-06T03:43:52;6.78;;;3.22;;
33505;SDS011;19843;51.040;13.782;2023-08-06T03:46:19;3.38;;;3.05;;
33505;SDS011;19843;51.040;13.782;2023-08-06T03:48:47;2.80;;;2.58;;
33505;SDS011;19843;51.040;13.782;2023-08-06T03:51:14;4.15;;;2.90;;
33505;SDS011;19843;51.040;13.782;2023-08-06T03:53:43;2.92;;;2.63;;
33505;SDS011;19843;51.040;13.782;2023-08-06T03:56:11;2.92;;;2.60;;
33505;SDS011;19843;51.040;13.782;2023-08-06T03:58:38;2.90;;;2.70;;
33505;SDS011;19843;51.040;13.782;2023-08-06T04:01:06;4.13;;;3.20;;
33505;SDS011;19843;51.040;13.782;2023-08-06T04:03:33;3.65;;;2.70;;
33505;SDS011;19843;51.040;13.782;2023-08-06T04:06:02;2.85;;;2.25;;
33505;SDS011;19843;51.040;13.782;2023-08-06T04:08:30;2.67;;;2.47;;
33505;SDS011;19843;51.040;13.782;2023-08-06T04:10:59;3.88;;;2.60;;
33505;SDS011;19843;51.040;13.782;2023-08-06T04:13:27;2.45;;;2.25;;
33505;SDS011;19843;51.040;13.782;2023-08-06T04:15:54;3.10;;;2.67;;
33505;SDS011;19843;51.040;13.782;2023-08-06T04:18:22;2.00;;;1.90;;
33505;SDS011;19843;51.040;13.782;2023-08-06T04:20:51;2.58;;;2.30;;
33505;SDS011;19843;51.040;13.782;2023-08-06T04:23:21;2.33;;;2.13;;
33505;SDS011;19843;51.040;13.782;2023-08-06T04:25:48;2.40;;;2.30;;
33505;SDS011;19843;51.040;13.782;2023-08-06T04:28:18;2.75;;;2.47;;
33505;SDS011;19843;51.040;13.782;2023-08-06T04:30:46;2.65;;;2.45;;
33505;SDS011;19843;51.040;13.782;2023-08-06T04:33:13;2.47;;;2.28;;
33505;SDS011;19843;51.040;13.782;2023-08-06T04:35:41;2.65;;;2.45;;
33505;SDS011;19843;51.040;13.782;2023-08-06T04:38:08;3.05;;;1.90;;
33505;SDS011;19843;51.040;13.782;2023-08-06T04:40:36;2.20;;;2.00;;
33505;SDS011;19843;51.040;13.782;2023-08-06T04:43:04;2.40;;;2.20;;
33505;SDS011;19843;51.040;13.782;2023-08-06T04:45:32;1.95;;;1.80;;
33505;SDS011;19843;51.040;13.782;2023-08-06T04:48:00;1.52;;;1.42;;
33505;SDS011;19843;51.040;13.782;2023-08-06T04:50:28;1.58;;;1.48;;
33505;SDS011;19843;51.040;13.782;2023-08-06T04:52:55;2.17;;;1.58;;
33505;SDS011;19843;51.040;13.782;2023-08-06T04:55:23;1.52;;;1.42;;
33505;SDS011;19843;51.040;13.782;2023-08-06T04:57:50;2.20;;;2.00;;
33505;SDS011;19843;51.040;13.782;2023-08-06T05:00:18;1.98;;;1.83;;
33505;SDS011;19843;51.040;13.782;2023-08-06T05:02:47;2.35;;;2.15;;
33505;SDS011;19843;51.040;13.782;2023-08-06T05:05:14;2.35;;;2.15;;
33505;SDS011;19843;51.040;13.782;2023-08-06T05:07:42;2.15;;;2.05;;
33505;SDS011;19843;51.040;13.782;2023-08-06T05:10:09;2.60;;;1.92;;
33505;SDS011;19843;51.040;13.782;2023-08-06T05:12:37;1.98;;;1.80;;
33505;SDS011;19843;51.040;13.782;2023-08-06T05:15:05;2.03;;;1.92;;
33505;SDS011;19843;51.040;13.782;2023-08-06T05:17:33;1.48;;;1.38;;
33505;SDS011;19843;51.040;13.782;2023-08-06T05:20:03;2.35;;;1.85;;
33505;SDS011;19843;51.040;13.782;2023-08-06T05:22:31;2.63;;;2.15;;
33505;SDS011;19843;51.040;13.782;2023-08-06T05:24:58;5.18;;;2.25;;
33505;SDS011;19843;51.040;13.782;2023-08-06T05:27:26;2.47;;;1.70;;
33505;SDS011;19843;51.040;13.782;2023-08-06T05:29:54;1.60;;;1.48;;
33505;SDS011;19843;51.040;13.782;2023-08-06T05:32:22;2.30;;;2.10;;
33505;SDS011;19843;51.040;13.782;2023-08-06T05:34:50;2.53;;;2.00;;
33505;SDS011;19843;51.040;13.782;2023-08-06T05:37:19;2.15;;;1.83;;
33505;SDS011;19843;51.040;13.782;2023-08-06T05:39:46;2.38;;;2.17;;
33505;SDS011;19843;51.040;13.782;2023-08-06T05:42:14;2.30;;;2.10;;
33505;SDS011;19843;51.040;13.782;2023-08-06T05:44:41;2.53;;;2.10;;
33505;SDS011;19843;51.040;13.782;2023-08-06T05:47:09;2.58;;;2.28;;
33505;SDS011;19843;51.040;13.782;2023-08-06T05:49:36;2.33;;;2.20;;
33505;SDS011;19843;51.040;13.782;2023-08-06T05:52:04;3.05;;;2.63;;
33505;SDS011;19843;51.040;13.782;2023-08-06T05:54:36;2.58;;;2.38;;
33505;SDS011;19843;51.040;13.782;2023-08-06T05:57:03;2.60;;;2.40;;
33505;SDS011;19843;51.040;13.782;2023-08-06T05:59:32;2.53;;;2.33;;
33505;SDS011;19843;51.040;13.782;2023-08-06T06:01:59;4.82;;;2.88;;
33505;SDS011;19843;51.040;13.782;2023-08-06T06:04:27;3.10;;;2.80;;
33505;SDS011;19843;51.040;13.782;2023-08-06T06:06:55;4.65;;;3.35;;
33505;SDS011;19843;51.040;13.782;2023-08-06T06:09:22;3.20;;;2.90;;
33505;SDS011;19843;51.040;13.782;2023-08-06T06:11:51;3.33;;;3.03;;
33505;SDS011;19843;51.040;13.782;2023-08-06T06:14:20;3.25;;;2.95;;
33505;SDS011;19843;51.040;13.782;2023-08-06T06:16:47;3.15;;;2.75;;
33505;SDS011;19843;51.040;13.782;2023-08-06T06:19:15;3.92;;;3.22;;
33505;SDS011;19843;51.040;13.782;2023-08-06T06:21:42;4.18;;;3.13;;
33505;SDS011;19843;51.040;13.782;2023-08-06T06:24:10;3.13;;;2.60;;
33505;SDS011;19843;51.040;13.782;2023-08-06T06:26:37;3.63;;;3.33;;
33505;SDS011;19843;51.040;13.782;2023-08-06T06:29:06;3.63;;;3.33;;
33505;SDS011;19843;51.040;13.782;2023-08-06T06:31:34;2.53;;;2.33;;
33505;SDS011;19843;51.040;13.782;2023-08-06T06:34:01;2.65;;;2.30;;
33505;SDS011;19843;51.040;13.782;2023-08-06T06:36:29;4.15;;;2.80;;
33505;SDS011;19843;51.040;13.782;2023-08-06T06:38:56;3.05;;;2.75;;
33505;SDS011;19843;51.040;13.782;2023-08-06T06:41:24;2.28;;;2.08;;
33505;SDS011;19843;51.040;13.782;2023-08-06T06:43:52;3.13;;;2.75;;
33505;SDS011;19843;51.040;13.782;2023-08-06T06:46:21;2.88;;;2.65;;
33505;SDS011;19843;51.040;13.782;2023-08-06T06:48:48;3.42;;;2.50;;
33505;SDS011;19843;51.040;13.782;2023-08-06T06:51:16;3.55;;;3.00;;
33505;SDS011;19843;51.040;13.782;2023-08-06T06:53:44;3.17;;;2.65;;
33505;SDS011;19843;51.040;13.782;2023-08-06T06:56:11;2.65;;;2.40;;
33505;SDS011;19843;51.040;13.782;2023-08-06T06:58:39;2.97;;;2.50;;
33505;SDS011;19843;51.040;13.782;2023-08-06T07:01:07;2.78;;;2.55;;
33505;SDS011;19843;51.040;13.782;2023-08-06T07:03:37;2.88;;;2.65;;
33505;SDS011;19843;51.040;13.782;2023-08-06T07:06:05;2.92;;;2.67;;
33505;SDS011;19843;51.040;13.782;2023-08-06T07:08:34;2.75;;;2.55;;
33505;SDS011;19843;51.040;13.782;2023-08-06T07:11:03;2.60;;;2.30;;
33505;SDS011;19843;51.040;13.782;2023-08-06T07:13:32;4.70;;;2.58;;
33505;SDS011;19843;51.040;13.782;2023-08-06T07:16:00;3.28;;;2.45;;
33505;SDS011;19843;51.040;13.782;2023-08-06T07:18:27;3.05;;;2.67;;
33505;SDS011;19843;51.040;13.782;2023-08-06T07:20:57;3.50;;;3.20;;
33505;SDS011;19843;51.040;13.782;2023-08-06T07:23:25;3.38;;;2.30;;
33505;SDS011;19843;51.040;13.782;2023-08-06T07:25:53;3.28;;;2.97;;
33505;SDS011;19843;51.040;13.782;2023-08-06T07:28:21;3.00;;;2.70;;
33505;SDS011;19843;51.040;13.782;2023-08-06T07:30:48;2.83;;;2.63;;
33505;SDS011;19843;51.040;13.782;2023-08-06T07:33:16;3.90;;;3.15;;
33505;SDS011;19843;51.040;13.782;2023-08-06T07:35:43;3.15;;;2.85;;
33505;SDS011;19843;51.040;13.782;2023-08-06T07:38:12;3.50;;;3.20;;
33505;SDS011;19843;51.040;13.782;2023-08-06T07:40:40;3.40;;;3.05;;
33505;SDS011;19843;51.040;13.782;2023-08-06T07:43:08;10.15;;;3.55;;
33505;SDS011;19843;51.040;13.782;2023-08-06T07:45:36;5.93;;;3.10;;
33505;SDS011;19843;51.040;13.782;2023-08-06T07:48:06;3.80;;;3.40;;
33505;SDS011;19843;51.040;13.782;2023-08-06T07:50:33;4.75;;;3.75;;
33505;SDS011;19843;51.040;13.782;2023-08-06T07:53:01;4.07;;;3.63;;
33505;SDS011;19843;51.040;13.782;2023-08-06T07:55:33;4.50;;;3.10;;
33505;SDS011;19843;51.040;13.782;2023-08-06T07:58:01;3.55;;;3.25;;
33505;SDS011;19843;51.040;13.782;2023-08-06T08:00:28;3.90;;;3.30;;
33505;SDS011;19843;51.040;13.782;2023-08-06T08:02:56;7.25;;;2.92;;
33505;SDS011;19843;51.040;13.782;2023-08-06T08:05:23;3.50;;;2.97;;
33505;SDS011;19843;51.040;13.782;2023-08-06T08:07:51;2.60;;;2.40;;
33505;SDS011;19843;51.040;13.782;2023-08-06T08:10:19;3.03;;;2.72;;
33505;SDS011;19843;51.040;13.782;2023-08-06T08:12:47;3.47;;;2.92;;
33505;SDS011;19843;51.040;13.782;2023-08-06T08:15:15;4.55;;;3.22;;
33505;SDS011;19843;51.040;13.782;2023-08-06T08:17:43;3.03;;;2.63;;
33505;SDS011;19843;51.040;13.782;2023-08-06T08:20:10;3.13;;;2.78;;
33505;SDS011;19843;51.040;13.782;2023-08-06T08:22:38;2.85;;;2.60;;
33505;SDS011;19843;51.040;13.782;2023-08-06T08:25:06;3.67;;;2.38;;
33505;SDS011;19843;51.040;13.782;2023-08-06T08:27:34;2.90;;;2.45;;
33505;SDS011;19843;51.040;13.782;2023-08-06T08:30:03;2.53;;;2.33;;
33505;SDS011;19843;51.040;13.782;2023-08-06T08:32:31;2.83;;;2.58;;
33505;SDS011;19843;51.040;13.782;2023-08-06T08:34:59;4.15;;;2.58;;
33505;SDS011;19843;51.040;13.782;2023-08-06T08:37:26;3.00;;;2.33;;
33505;SDS011;19843;51.040;13.782;2023-08-06T08:39:54;3.08;;;2.10;;
33505;SDS011;19843;51.040;13.782;2023-08-06T08:42:22;1.98;;;1.80;;
33505;SDS011;19843;51.040;13.782;2023-08-06T08:44:51;2.20;;;1.92;;
33505;SDS011;19843;51.040;13.782;2023-08-06T08:47:22;1.90;;;1.70;;
33505;SDS011;19843;51.040;13.782;2023-08-06T08:49:52;1.77;;;1.67;;
33505;SDS011;19843;51.040;13.782;2023-08-06T08:52:21;1.70;;;1.60;;
33505;SDS011;19843;51.040;13.782;2023-08-06T08:54:49;1.83;;;1.73;;
33505;SDS011;19843;51.040;13.782;2023-08-06T08:57:19;2.45;;;2.13;;
33505;SDS011;19843;51.040;13.782;2023-08-06T08:59:47;2.00;;;1.85;;
33505;SDS011;19843;51.040;13.782;2023-08-06T09:02:15;1.92;;;1.80;;
33505;SDS011;19843;51.040;13.782;2023-08-06T09:04:45;2.05;;;1.27;;
33505;SDS011;19843;51.040;13.782;2023-08-06T09:07:16;2.08;;;1.88;;
33505;SDS011;19843;51.040;13.782;2023-08-06T09:09:47;1.67;;;1.58;;
33505;SDS011;19843;51.040;13.782;2023-08-06T09:12:16;2.33;;;1.83;;
33505;SDS011;19843;51.040;13.782;2023-08-06T09:14:44;1.80;;;1.70;;
33505;SDS011;19843;51.040;13.782;2023-08-06T09:17:12;2.22;;;1.98;;
33505;SDS011;19843;51.040;13.782;2023-08-06T09:19:41;1.65;;;1.55;;
33505;SDS011;19843;51.040;13.782;2023-08-06T09:22:13;1.58;;;1.48;;
33505;SDS011;19843;51.040;13.782;2023-08-06T09:24:41;2.25;;;1.75;;
33505;SDS011;19843;51.040;13.782;2023-08-06T09:27:11;1.90;;;1.45;;
33505;SDS011;19843;51.040;13.782;2023-08-06T09:29:42;1.95;;;1.80;;
33505;SDS011;19843;51.040;13.782;2023-08-06T09:32:11;1.85;;;1.70;;
33505;SDS011;19843;51.040;13.782;2023-08-06T09:34:41;2.08;;;1.67;;
33505;SDS011;19843;51.040;13.782;2023-08-06T09:37:09;1.75;;;1.65;;
33505;SDS011;19843;51.040;13.782;2023-08-06T09:39:39;1.95;;;1.75;;
33505;SDS011;19843;51.040;13.782;2023-08-06T09:42:07;1.95;;;1.80;;
33505;SDS011;19843;51.040;13.782;2023-08-06T09:44:35;2.22;;;1.88;;
33505;SDS011;19843;51.040;13.782;2023-08-06T09:47:03;2.13;;;1.65;;
33505;SDS011;19843;51.040;13.782;2023-08-06T09:49:40;2.22;;;1.85;;
33505;SDS011;19843;51.040;13.782;2023-08-06T09:52:12;1.90;;;1.80;;
33505;SDS011;19843;51.040;13.782;2023-08-06T09:54:43;2.47;;;2.20;;
33505;SDS011;19843;51.040;13.782;2023-08-06T09:57:12;2.15;;;1.95;;
33505;SDS011;19843;51.040;13.782;2023-08-06T09:59:40;2.53;;;2.33;;
33505;SDS011;19843;51.040;13.782;2023-08-06T10:02:11;1.88;;;1.73;;
33505;SDS011;19843;51.040;13.782;2023-08-06T10:04:42;2.15;;;1.95;;
33505;SDS011;19843;51.040;13.782;2023-08-06T10:07:20;2.38;;;2.17;;
33505;SDS011;19843;51.040;13.782;2023-08-06T10:09:51;2.42;;;2.22;;
33505;SDS011;19843;51.040;13.782;2023-08-06T10:12:19;2.10;;;1.90;;
33505;SDS011;19843;51.040;13.782;2023-08-06T10:14:47;1.77;;;1.65;;
33505;SDS011;19843;51.040;13.782;2023-08-06T10:17:17;1.90;;;1.77;;
33505;SDS011;19843;51.040;13.782;2023-08-06T10:19:44;2.22;;;1.90;;
33505;SDS011;19843;51.040;13.782;2023-08-06T10:22:13;2.10;;;1.90;;
33505;SDS011;19843;51.040;13.782;2023-08-06T10:24:46;1.98;;;1.88;;
33505;SDS011;19843;51.040;13.782;2023-08-06T10:27:20;1.98;;;1.85;;
33505;SDS011;19843;51.040;13.782;2023-08-06T10:29:49;2.00;;;1.90;;
33505;SDS011;19843;51.040;13.782;2023-08-06T10:32:17;2.20;;;2.03;;
33505;SDS011;19843;51.040;13.782;2023-08-06T10:34:55;2.13;;;1.75;;
33505;SDS011;19843;51.040;13.782;2023-08-06T10:37:25;2.22;;;2.03;;
33505;SDS011;19843;51.040;13.782;2023-08-06T10:40:02;1.73;;;1.63;;
33505;SDS011;19843;51.040;13.782;2023-08-06T10:42:35;2.40;;;2.20;;
33505;SDS011;19843;51.040;13.782;2023-08-06T10:45:10;2.10;;;2.00;;
33505;SDS011;19843;51.040;13.782;2023-08-06T10:47:39;2.63;;;1.92;;
33505;SDS011;19843;51.040;13.782;2023-08-06T10:50:11;2.45;;;1.95;;
33505;SDS011;19843;51.040;13.782;2023-08-06T10:52:40;2.15;;;1.75;;
33505;SDS011;19843;51.040;13.782;2023-08-06T10:55:07;1.83;;;1.73;;
33505;SDS011;19843;51.040;13.782;2023-08-06T10:57:37;2.33;;;1.92;;
33505;SDS011;19843;51.040;13.782;2023-08-06T11:00:05;2.50;;;2.10;;
33505;SDS011;19843;51.040;13.782;2023-08-06T11:02:42;1.92;;;1.70;;
33505;SDS011;19843;51.040;13.782;2023-08-06T11:05:10;2.15;;;1.95;;
33505;SDS011;19843;51.040;13.782;2023-08-06T11:07:38;2.10;;;2.00;;
33505;SDS011;19843;51.040;13.782;2023-08-06T11:10:06;2.40;;;2.20;;
33505;SDS011;19843;51.040;13.782;2023-08-06T11:12:35;2.10;;;1.95;;
33505;SDS011;19843;51.040;13.782;2023-08-06T11:15:05;2.53;;;2.10;;
33505;SDS011;19843;51.040;13.782;2023-08-06T11:17:33;1.67;;;1.58;;
33505;SDS011;19843;51.040;13.782;2023-08-06T11:20:02;1.85;;;1.75;;
33505;SDS011;19843;51.040;13.782;2023-08-06T11:22:30;1.70;;;1.60;;
33505;SDS011;19843;51.040;13.782;2023-08-06T11:24:58;1.88;;;1.67;;
33505;SDS011;19843;51.040;13.782;2023-08-06T11:27:27;2.00;;;1.80;;
33505;SDS011;19843;51.040;13.782;2023-08-06T11:29:55;1.83;;;1.73;;
33505;SDS011;19843;51.040;13.782;2023-08-06T11:32:24;1.70;;;1.60;;
33505;SDS011;19843;51.040;13.782;2023-08-06T11:34:53;2.67;;;1.98;;
33505;SDS011;19843;51.040;13.782;2023-08-06T11:37:22;1.80;;;1.70;;
33505;SDS011;19843;51.040;13.782;2023-08-06T11:39:51;2.28;;;1.90;;
33505;SDS011;19843;51.040;13.782;2023-08-06T11:42:19;2.10;;;1.90;;
33505;SDS011;19843;51.040;13.782;2023-08-06T11:44:46;1.50;;;1.40;;
33505;SDS011;19843;51.040;13.782;2023-08-06T11:47:14;1.92;;;1.83;;
33505;SDS011;19843;51.040;13.782;2023-08-06T11:49:45;2.85;;;1.48;;
33505;SDS011;19843;51.040;13.782;2023-08-06T11:52:14;2.00;;;1.80;;
33505;SDS011;19843;51.040;13.782;2023-08-06T11:54:59;1.90;;;1.80;;
33505;SDS011;19843;51.040;13.782;2023-08-06T11:57:28;2.10;;;1.90;;
33505;SDS011;19843;51.040;13.782;2023-08-06T12:00:01;2.03;;;1.85;;
33505;SDS011;19843;51.040;13.782;2023-08-06T12:02:31;2.13;;;1.92;;
33505;SDS011;19843;51.040;13.782;2023-08-06T12:05:09;2.95;;;2.17;;
33505;SDS011;19843;51.040;13.782;2023-08-06T12:07:38;2.20;;;1.98;;
33505;SDS011;19843;51.040;13.782;2023-08-06T12:10:07;2.50;;;1.92;;
33505;SDS011;19843;51.040;13.782;2023-08-06T12:12:35;2.30;;;1.92;;
33505;SDS011;19843;51.040;13.782;2023-08-06T12:15:05;3.58;;;2.15;;
33505;SDS011;19843;51.040;13.782;2023-08-06T12:17:33;2.13;;;2.00;;
33505;SDS011;19843;51.040;13.782;2023-08-06T12:20:01;2.08;;;1.88;;
33505;SDS011;19843;51.040;13.782;2023-08-06T12:22:32;3.28;;;1.98;;
33505;SDS011;19843;51.040;13.782;2023-08-06T12:25:01;2.10;;;1.88;;
33505;SDS011;19843;51.040;13.782;2023-08-06T12:27:29;2.83;;;2.00;;
33505;SDS011;19843;51.040;13.782;2023-08-06T12:29:57;2.45;;;2.25;;
33505;SDS011;19843;51.040;13.782;2023-08-06T12:32:25;1.90;;;1.80;;
33505;SDS011;19843;51.040;13.782;2023-08-06T12:34:53;2.17;;;1.98;;
33505;SDS011;19843;51.040;13.782;2023-08-06T12:37:21;1.85;;;1.75;;
33505;SDS011;19843;51.040;13.782;2023-08-06T12:39:50;2.03;;;1.92;;
33505;SDS011;19843;51.040;13.782;2023-08-06T12:42:18;1.88;;;1.77;;
33505;SDS011;19843;51.040;13.782;2023-08-06T12:44:52;2.08;;;1.90;;
33505;SDS011;19843;51.040;13.782;2023-08-06T12:47:19;2.50;;;2.00;;
33505;SDS011;19843;51.040;13.782;2023-08-06T12:49:47;2.72;;;2.03;;
33505;SDS011;19843;51.040;13.782;2023-08-06T12:52:15;2.30;;;2.13;;
33505;SDS011;19843;51.040;13.782;2023-08-06T12:54:45;2.10;;;1.98;;
33505;SDS011;19843;51.040;13.782;2023-08-06T12:57:14;2.30;;;2.10;;
33505;SDS011;19843;51.040;13.782;2023-08-06T12:59:43;2.42;;;2.22;;
33505;SDS011;19843;51.040;13.782;2023-08-06T13:02:10;2.85;;;2.00;;
33505;SDS011;19843;51.040;13.782;2023-08-06T13:04:38;2.47;;;2.17;;
33505;SDS011;19843;51.040;13.782;2023-08-06T13:07:06;2.55;;;2.20;;
33505;SDS011;19843;51.040;13.782;2023-08-06T13:09:33;2.90;;;2.28;;
33505;SDS011;19843;51.040;13.782;2023-08-06T13:12:02;1.73;;;1.63;;
33505;SDS011;19843;51.040;13.782;2023-08-06T13:14:33;2.15;;;2.00;;
33505;SDS011;19843;51.040;13.782;2023-08-06T13:17:00;2.13;;;1.90;;
33505;SDS011;19843;51.040;13.782;2023-08-06T13:19:28;2.58;;;2.38;;
33505;SDS011;19843;51.040;13.782;2023-08-06T13:22:00;1.88;;;1.77;;
33505;SDS011;19843;51.040;13.782;2023-08-06T13:24:29;2.28;;;2.10;;
33505;SDS011;19843;51.040;13.782;2023-08-06T13:26:57;2.28;;;1.75;;
33505;SDS011;19843;51.040;13.782;2023-08-06T13:29:25;2.13;;;1.90;;
33505;SDS011;19843;51.040;13.782;2023-08-06T13:31:54;2.00;;;1.90;;
33505;SDS011;19843;51.040;13.782;2023-08-06T13:34:22;2.00;;;1.90;;
33505;SDS011;19843;51.040;13.782;2023-08-06T13:36:50;2.25;;;2.05;;
33505;SDS011;19843;51.040;13.782;2023-08-06T13:39:23;1.95;;;1.65;;
33505;SDS011;19843;51.040;13.782;2023-08-06T13:41:51;1.80;;;1.70;;
33505;SDS011;19843;51.040;13.782;2023-08-06T13:44:18;1.83;;;1.70;;
33505;SDS011;19843;51.040;13.782;2023-08-06T13:46:46;2.30;;;1.90;;
33505;SDS011;19843;51.040;13.782;2023-08-06T13:49:15;1.85;;;1.73;;
33505;SDS011;19843;51.040;13.782;2023-08-06T13:51:42;1.65;;;1.55;;
33505;SDS011;19843;51.040;13.782;2023-08-06T13:54:10;2.53;;;1.73;;
33505;SDS011;19843;51.040;13.782;2023-08-06T13:56:37;1.98;;;1.83;;
33505;SDS011;19843;51.040;13.782;2023-08-06T13:59:05;2.38;;;1.65;;
33505;SDS011;19843;51.040;13.782;2023-08-06T14:01:32;2.10;;;1.90;;
33505;SDS011;19843;51.040;13.782;2023-08-06T14:04:18;1.80;;;1.67;;
33505;SDS011;19843;51.040;13.782;2023-08-06T14:06:47;1.50;;;1.40;;
33505;SDS011;19843;51.040;13.782;2023-08-06T14:09:15;1.85;;;1.75;;
33505;SDS011;19843;51.040;13.782;2023-08-06T14:11:45;1.85;;;1.75;;
33505;SDS011;19843;51.040;13.782;2023-08-06T14:14:12;1.50;;;1.40;;
33505;SDS011;19843;51.040;13.782;2023-08-06T14:16:40;2.35;;;1.50;;
33505;SDS011;19843;51.040;13.782;2023-08-06T14:19:08;1.80;;;1.70;;
33505;SDS011;19843;51.040;13.782;2023-08-06T14:21:36;2.72;;;1.70;;
33505;SDS011;19843;51.040;13.782;2023-08-06T14:24:04;1.70;;;1.60;;
33505;SDS011;19843;51.040;13.782;2023-08-06T14:26:32;1.77;;;1.42;;
33505;SDS011;19843;51.040;13.782;2023-08-06T14:29:00;1.70;;;1.60;;
33505;SDS011;19843;51.040;13.782;2023-08-06T14:31:28;1.90;;;1.70;;
33505;SDS011;19843;51.040;13.782;2023-08-06T14:33:56;1.70;;;1.60;;
33505;SDS011;19843;51.040;13.782;2023-08-06T14:36:23;1.90;;;1.80;;
33505;SDS011;19843;51.040;13.782;2023-08-06T14:38:52;1.75;;;1.65;;
33505;SDS011;19843;51.040;13.782;2023-08-06T14:41:25;1.90;;;1.80;;